sensor_id;sensor_type;location;lat;lon;timestamp;temperature;humidity
17053;DHT22;8643;48.824;11.422;2023-03-01T00:01:54;0.50;99.90
17053;DHT22;8643;48.824;11.422;2023-03-01T00:04:22;0.60;99.90
17053;DHT22;8643;48.824;11.422;2023-03-01T00:06:50;0.50;99.90
17053;DHT22;8643;48.824;11.422;2023-03-01T00:09:19;0.50;99.90
17053;DHT22;8643;48.824;11.422;2023-03-01T00:11:48;0.50;99.90
17053;DHT22;8643;48.824;11.422;2023-03-01T00:14:16;0.50;99.90
17053;DHT22;8643;48.824;11.422;2023-03-01T00:16:45;0.60;99.90
17053;DHT22;8643;48.824;11.422;2023-03-01T00:19:17;0.60;99.90
17053;DHT22;8643;48.824;11.422;2023-03-01T00:21:48;0.60;99.90
17053;DHT22;8643;48.824;11.422;2023-03-01T00:24:17;0.50;99.90
17053;DHT22;8643;48.824;11.422;2023-03-01T00:26:45;1.40;99.90
17053;DHT22;8643;48.824;11.422;2023-03-01T00:29:14;0.50;99.90
17053;DHT22;8643;48.824;11.422;2023-03-01T00:31:42;0.60;99.90
17053;DHT22;8643;48.824;11.422;2023-03-01T00:34:11;1.80;99.90
17053;DHT22;8643;48.824;11.422;2023-03-01T00:36:40;0.60;99.90
17053;DHT22;8643;48.824;11.422;2023-03-01T00:41:41;0.50;99.90
17053;DHT22;8643;48.824;11.422;2023-03-01T00:44:11;0.50;99.90
17053;DHT22;8643;48.824;11.422;2023-03-01T00:46:39;0.60;99.90
17053;DHT22;8643;48.824;11.422;2023-03-01T00:49:08;-0.40;99.90
17053;DHT22;8643;48.824;11.422;2023-03-01T00:54:08;-0.50;99.90
17053;DHT22;8643;48.824;11.422;2023-03-01T00:56:37;0.50;99.90
17053;DHT22;8643;48.824;11.422;2023-03-01T00:59:05;0.50;99.90
17053;DHT22;8643;48.824;11.422;2023-03-01T01:01:33;0.50;99.90
17053;DHT22;8643;48.824;11.422;2023-03-01T01:04:04;0.50;99.90
17053;DHT22;8643;48.824;11.422;2023-03-01T01:06:41;0.50;99.90
17053;DHT22;8643;48.824;11.422;2023-03-01T01:09:14;0.40;99.90
17053;DHT22;8643;48.824;11.422;2023-03-01T01:11:45;0.50;99.90
17053;DHT22;8643;48.824;11.422;2023-03-01T01:14:17;0.50;99.90
17053;DHT22;8643;48.824;11.422;2023-03-01T01:16:46;0.40;99.90
17053;DHT22;8643;48.824;11.422;2023-03-01T01:19:15;0.40;99.90
17053;DHT22;8643;48.824;11.422;2023-03-01T01:21:43;0.50;99.90
17053;DHT22;8643;48.824;11.422;2023-03-01T01:24:14;0.40;99.90
17053;DHT22;8643;48.824;11.422;2023-03-01T01:26:43;0.40;99.90
17053;DHT22;8643;48.824;11.422;2023-03-01T01:29:12;0.40;99.90
17053;DHT22;8643;48.824;11.422;2023-03-01T01:31:42;0.40;99.90
17053;DHT22;8643;48.824;11.422;2023-03-01T01:34:14;1.00;99.90
17053;DHT22;8643;48.824;11.422;2023-03-01T01:36:44;0.40;99.90
17053;DHT22;8643;48.824;11.422;2023-03-01T01:39:16;0.40;99.90
17053;DHT22;8643;48.824;11.422;2023-03-01T01:41:45;0.50;99.90
17053;DHT22;8643;48.824;11.422;2023-03-01T01:44:16;0.40;99.90
17053;DHT22;8643;48.824;11.422;2023-03-01T01:46:49;0.40;99.90
17053;DHT22;8643;48.824;11.422;2023-03-01T01:49:27;0.40;99.90
17053;DHT22;8643;48.824;11.422;2023-03-01T01:52:05;0.40;99.90
17053;DHT22;8643;48.824;11.422;2023-03-01T01:54:43;0.50;99.90
17053;DHT22;8643;48.824;11.422;2023-03-01T01:57:18;4.10;99.90
17053;DHT22;8643;48.824;11.422;2023-03-01T01:59:52;-0.50;99.90
17053;DHT22;8643;48.824;11.422;2023-03-01T02:02:26;0.40;99.90
17053;DHT22;8643;48.824;11.422;2023-03-01T02:05:03;0.40;99.90
17053;DHT22;8643;48.824;11.422;2023-03-01T02:07:43;0.40;99.90
17053;DHT22;8643;48.824;11.422;2023-03-01T02:10:15;0.40;99.90
17053;DHT22;8643;48.824;11.422;2023-03-01T02:15:13;0.40;99.90
17053;DHT22;8643;48.824;11.422;2023-03-01T02:20:16;0.40;99.90
17053;DHT22;8643;48.824;11.422;2023-03-01T02:22:52;0.30;99.90
17053;DHT22;8643;48.824;11.422;2023-03-01T02:25:34;0.30;99.90
17053;DHT22;8643;48.824;11.422;2023-03-01T02:28:19;0.30;99.90
17053;DHT22;8643;48.824;11.422;2023-03-01T02:30:50;0.40;99.90
17053;DHT22;8643;48.824;11.422;2023-03-01T02:36:14;1.60;99.90
17053;DHT22;8643;48.824;11.422;2023-03-01T02:38:47;0.40;99.90
17053;DHT22;8643;48.824;11.422;2023-03-01T02:41:19;0.40;99.90
17053;DHT22;8643;48.824;11.422;2023-03-01T02:43:51;0.40;99.90
17053;DHT22;8643;48.824;11.422;2023-03-01T02:46:21;0.40;99.90
17053;DHT22;8643;48.824;11.422;2023-03-01T02:48:53;0.40;99.90
17053;DHT22;8643;48.824;11.422;2023-03-01T02:51:34;0.30;99.90
17053;DHT22;8643;48.824;11.422;2023-03-01T02:54:15;0.40;99.90
17053;DHT22;8643;48.824;11.422;2023-03-01T02:56:51;0.30;99.90
17053;DHT22;8643;48.824;11.422;2023-03-01T02:59:24;0.30;99.90
17053;DHT22;8643;48.824;11.422;2023-03-01T03:01:57;0.20;99.90
17053;DHT22;8643;48.824;11.422;2023-03-01T03:04:29;0.20;99.90
17053;DHT22;8643;48.824;11.422;2023-03-01T03:07:01;0.10;99.90
17053;DHT22;8643;48.824;11.422;2023-03-01T03:09:29;0.00;99.90
17053;DHT22;8643;48.824;11.422;2023-03-01T03:11:58;-0.10;99.90
17053;DHT22;8643;48.824;11.422;2023-03-01T03:14:27;-0.20;99.90
17053;DHT22;8643;48.824;11.422;2023-03-01T03:19:24;-0.50;99.90
17053;DHT22;8643;48.824;11.422;2023-03-01T03:21:53;2.40;99.90
17053;DHT22;8643;48.824;11.422;2023-03-01T03:26:50;0.00;99.90
17053;DHT22;8643;48.824;11.422;2023-03-01T03:31:48;-0.70;99.90
17053;DHT22;8643;48.824;11.422;2023-03-01T03:34:17;-0.80;99.90
17053;DHT22;8643;48.824;11.422;2023-03-01T03:39:15;-0.90;99.90
17053;DHT22;8643;48.824;11.422;2023-03-01T03:41:46;-0.90;99.90
17053;DHT22;8643;48.824;11.422;2023-03-01T03:44:14;-0.90;99.90
17053;DHT22;8643;48.824;11.422;2023-03-01T03:46:42;-1.00;99.90
17053;DHT22;8643;48.824;11.422;2023-03-01T03:49:12;-1.00;99.90
17053;DHT22;8643;48.824;11.422;2023-03-01T03:51:40;-1.00;99.90
17053;DHT22;8643;48.824;11.422;2023-03-01T03:54:09;-1.00;99.90
17053;DHT22;8643;48.824;11.422;2023-03-01T03:56:37;-1.10;99.90
17053;DHT22;8643;48.824;11.422;2023-03-01T03:59:06;-1.10;99.90
17053;DHT22;8643;48.824;11.422;2023-03-01T04:04:09;-1.10;99.90
17053;DHT22;8643;48.824;11.422;2023-03-01T04:06:39;-1.20;99.90
17053;DHT22;8643;48.824;11.422;2023-03-01T04:09:07;-1.20;99.90
17053;DHT22;8643;48.824;11.422;2023-03-01T04:11:36;-1.30;99.90
17053;DHT22;8643;48.824;11.422;2023-03-01T04:14:05;-1.30;99.90
17053;DHT22;8643;48.824;11.422;2023-03-01T04:16:33;-1.40;99.90
17053;DHT22;8643;48.824;11.422;2023-03-01T04:19:03;-1.50;99.90
17053;DHT22;8643;48.824;11.422;2023-03-01T04:21:33;-1.50;99.90
17053;DHT22;8643;48.824;11.422;2023-03-01T04:24:04;-1.60;99.90
17053;DHT22;8643;48.824;11.422;2023-03-01T04:29:02;-1.40;99.90
17053;DHT22;8643;48.824;11.422;2023-03-01T04:31:31;-1.50;99.90
17053;DHT22;8643;48.824;11.422;2023-03-01T04:34:01;-1.50;99.90
17053;DHT22;8643;48.824;11.422;2023-03-01T04:36:29;-0.70;99.90
17053;DHT22;8643;48.824;11.422;2023-03-01T04:38:58;-1.50;99.90
17053;DHT22;8643;48.824;11.422;2023-03-01T04:41:34;-1.50;99.90
17053;DHT22;8643;48.824;11.422;2023-03-01T04:44:03;-1.60;99.90
17053;DHT22;8643;48.824;11.422;2023-03-01T04:46:31;-1.60;99.90
17053;DHT22;8643;48.824;11.422;2023-03-01T04:51:29;-1.70;99.90
17053;DHT22;8643;48.824;11.422;2023-03-01T04:53:59;-1.70;99.90
17053;DHT22;8643;48.824;11.422;2023-03-01T04:58:59;-1.80;99.90
17053;DHT22;8643;48.824;11.422;2023-03-01T05:04:02;-1.70;99.90
17053;DHT22;8643;48.824;11.422;2023-03-01T05:09:02;-1.70;99.90
17053;DHT22;8643;48.824;11.422;2023-03-01T05:11:31;-1.70;99.90
17053;DHT22;8643;48.824;11.422;2023-03-01T05:14:04;-1.70;99.90
17053;DHT22;8643;48.824;11.422;2023-03-01T05:16:35;-1.70;99.90
17053;DHT22;8643;48.824;11.422;2023-03-01T05:19:04;-1.70;99.90
17053;DHT22;8643;48.824;11.422;2023-03-01T05:21:38;-1.70;99.90
17053;DHT22;8643;48.824;11.422;2023-03-01T05:24:27;-1.80;99.90
17053;DHT22;8643;48.824;11.422;2023-03-01T05:26:56;-1.70;99.90
17053;DHT22;8643;48.824;11.422;2023-03-01T05:29:28;-1.80;99.90
17053;DHT22;8643;48.824;11.422;2023-03-01T05:34:33;-1.80;99.90
17053;DHT22;8643;48.824;11.422;2023-03-01T05:37:03;-1.80;99.90
17053;DHT22;8643;48.824;11.422;2023-03-01T05:39:31;-1.80;99.90
17053;DHT22;8643;48.824;11.422;2023-03-01T05:42:01;-1.70;99.90
17053;DHT22;8643;48.824;11.422;2023-03-01T05:44:36;-1.80;99.90
17053;DHT22;8643;48.824;11.422;2023-03-01T05:47:05;-1.80;99.90
17053;DHT22;8643;48.824;11.422;2023-03-01T05:52:05;-1.80;99.90
17053;DHT22;8643;48.824;11.422;2023-03-01T05:54:34;-1.90;99.90
17053;DHT22;8643;48.824;11.422;2023-03-01T05:57:02;-1.80;99.90
17053;DHT22;8643;48.824;11.422;2023-03-01T05:59:30;-1.80;99.90
17053;DHT22;8643;48.824;11.422;2023-03-01T06:02:00;-1.80;99.90
17053;DHT22;8643;48.824;11.422;2023-03-01T06:04:28;-1.80;99.90
17053;DHT22;8643;48.824;11.422;2023-03-01T06:06:57;-1.80;99.90
17053;DHT22;8643;48.824;11.422;2023-03-01T06:11:54;-1.90;99.90
17053;DHT22;8643;48.824;11.422;2023-03-01T06:14:22;-1.80;99.90
17053;DHT22;8643;48.824;11.422;2023-03-01T06:16:50;-1.80;99.90
17053;DHT22;8643;48.824;11.422;2023-03-01T06:19:20;-1.80;99.90
17053;DHT22;8643;48.824;11.422;2023-03-01T06:21:48;-1.80;99.90
17053;DHT22;8643;48.824;11.422;2023-03-01T06:24:19;-1.70;99.90
17053;DHT22;8643;48.824;11.422;2023-03-01T06:26:48;-1.70;99.90
17053;DHT22;8643;48.824;11.422;2023-03-01T06:29:16;-1.70;99.90
17053;DHT22;8643;48.824;11.422;2023-03-01T06:31:45;-1.70;99.90
17053;DHT22;8643;48.824;11.422;2023-03-01T06:34:14;-1.70;99.90
17053;DHT22;8643;48.824;11.422;2023-03-01T06:36:43;-1.60;99.90
17053;DHT22;8643;48.824;11.422;2023-03-01T06:39:12;-0.50;99.90
17053;DHT22;8643;48.824;11.422;2023-03-01T06:41:40;-1.50;99.90
17053;DHT22;8643;48.824;11.422;2023-03-01T06:44:09;-1.50;99.90
17053;DHT22;8643;48.824;11.422;2023-03-01T06:49:06;-1.30;99.90
17053;DHT22;8643;48.824;11.422;2023-03-01T06:51:36;-1.20;99.90
17053;DHT22;8643;48.824;11.422;2023-03-01T06:54:06;-1.10;99.90
17053;DHT22;8643;48.824;11.422;2023-03-01T06:56:34;-0.90;99.90
17053;DHT22;8643;48.824;11.422;2023-03-01T06:59:03;-0.70;99.90
17053;DHT22;8643;48.824;11.422;2023-03-01T07:06:30;0.00;99.90
17053;DHT22;8643;48.824;11.422;2023-03-01T07:08:59;0.20;99.90
17053;DHT22;8643;48.824;11.422;2023-03-01T07:11:28;0.30;99.90
17053;DHT22;8643;48.824;11.422;2023-03-01T07:13:57;0.60;99.90
17053;DHT22;8643;48.824;11.422;2023-03-01T07:16:26;0.70;99.90
17053;DHT22;8643;48.824;11.422;2023-03-01T07:18:55;1.00;99.90
17053;DHT22;8643;48.824;11.422;2023-03-01T07:26:23;1.50;99.90
17053;DHT22;8643;48.824;11.422;2023-03-01T07:28:53;1.80;99.90
17053;DHT22;8643;48.824;11.422;2023-03-01T07:31:21;1.90;99.90
17053;DHT22;8643;48.824;11.422;2023-03-01T07:33:50;2.40;99.90
17053;DHT22;8643;48.824;11.422;2023-03-01T07:36:18;1.80;99.90
17053;DHT22;8643;48.824;11.422;2023-03-01T07:41:15;2.70;99.90
17053;DHT22;8643;48.824;11.422;2023-03-01T07:43:44;2.80;99.90
17053;DHT22;8643;48.824;11.422;2023-03-01T07:46:14;1.70;99.90
17053;DHT22;8643;48.824;11.422;2023-03-01T07:48:42;3.10;99.90
17053;DHT22;8643;48.824;11.422;2023-03-01T07:51:14;3.20;99.90
17053;DHT22;8643;48.824;11.422;2023-03-01T07:53:46;3.20;99.90
17053;DHT22;8643;48.824;11.422;2023-03-01T07:56:16;3.40;99.90
17053;DHT22;8643;48.824;11.422;2023-03-01T08:01:20;4.00;99.90
17053;DHT22;8643;48.824;11.422;2023-03-01T08:06:19;3.30;99.90
17053;DHT22;8643;48.824;11.422;2023-03-01T08:08:48;4.30;99.90
17053;DHT22;8643;48.824;11.422;2023-03-01T08:11:16;4.30;98.90
17053;DHT22;8643;48.824;11.422;2023-03-01T08:13:47;4.50;98.20
17053;DHT22;8643;48.824;11.422;2023-03-01T08:16:20;4.70;97.10
17053;DHT22;8643;48.824;11.422;2023-03-01T08:18:49;4.80;97.10
17053;DHT22;8643;48.824;11.422;2023-03-01T08:21:18;5.00;96.50
17053;DHT22;8643;48.824;11.422;2023-03-01T08:23:46;5.10;96.60
17053;DHT22;8643;48.824;11.422;2023-03-01T08:26:20;5.40;94.60
17053;DHT22;8643;48.824;11.422;2023-03-01T08:28:49;5.90;94.40
17053;DHT22;8643;48.824;11.422;2023-03-01T08:31:21;5.80;93.80
17053;DHT22;8643;48.824;11.422;2023-03-01T08:33:52;6.20;93.70
17053;DHT22;8643;48.824;11.422;2023-03-01T08:36:23;6.40;91.70
17053;DHT22;8643;48.824;11.422;2023-03-01T08:38:53;6.40;90.60
17053;DHT22;8643;48.824;11.422;2023-03-01T08:41:22;6.50;90.20
17053;DHT22;8643;48.824;11.422;2023-03-01T08:43:50;6.60;91.00
17053;DHT22;8643;48.824;11.422;2023-03-01T08:46:21;6.80;89.30
17053;DHT22;8643;48.824;11.422;2023-03-01T08:48:49;6.90;88.50
17053;DHT22;8643;48.824;11.422;2023-03-01T08:51:19;7.30;87.00
17053;DHT22;8643;48.824;11.422;2023-03-01T08:53:48;7.40;88.60
17053;DHT22;8643;48.824;11.422;2023-03-01T08:56:18;7.70;85.10
17053;DHT22;8643;48.824;11.422;2023-03-01T08:58:48;7.50;83.70
17053;DHT22;8643;48.824;11.422;2023-03-01T09:01:18;7.70;82.10
17053;DHT22;8643;48.824;11.422;2023-03-01T09:03:48;7.90;81.80
17053;DHT22;8643;48.824;11.422;2023-03-01T09:06:17;7.90;81.20
17053;DHT22;8643;48.824;11.422;2023-03-01T09:08:48;7.70;83.30
17053;DHT22;8643;48.824;11.422;2023-03-01T09:11:18;7.80;80.40
17053;DHT22;8643;48.824;11.422;2023-03-01T09:13:48;7.90;83.70
17053;DHT22;8643;48.824;11.422;2023-03-01T09:16:19;8.00;80.70
17053;DHT22;8643;48.824;11.422;2023-03-01T09:18:51;8.50;78.60
17053;DHT22;8643;48.824;11.422;2023-03-01T09:21:22;8.40;80.70
17053;DHT22;8643;48.824;11.422;2023-03-01T09:24:06;8.10;78.20
17053;DHT22;8643;48.824;11.422;2023-03-01T09:26:39;8.10;78.60
17053;DHT22;8643;48.824;11.422;2023-03-01T09:29:08;8.20;79.00
17053;DHT22;8643;48.824;11.422;2023-03-01T09:31:37;8.10;80.80
17053;DHT22;8643;48.824;11.422;2023-03-01T09:34:08;8.30;77.30
17053;DHT22;8643;48.824;11.422;2023-03-01T09:36:37;8.10;78.60
17053;DHT22;8643;48.824;11.422;2023-03-01T09:39:06;8.30;78.00
17053;DHT22;8643;48.824;11.422;2023-03-01T09:41:44;8.60;79.20
17053;DHT22;8643;48.824;11.422;2023-03-01T09:44:25;8.70;79.70
17053;DHT22;8643;48.824;11.422;2023-03-01T09:46:59;8.80;74.30
17053;DHT22;8643;48.824;11.422;2023-03-01T09:49:33;8.60;76.50
17053;DHT22;8643;48.824;11.422;2023-03-01T09:52:09;8.90;80.60
17053;DHT22;8643;48.824;11.422;2023-03-01T09:54:50;8.70;78.60
17053;DHT22;8643;48.824;11.422;2023-03-01T09:57:30;8.60;77.10
17053;DHT22;8643;48.824;11.422;2023-03-01T10:00:16;8.70;82.30
17053;DHT22;8643;48.824;11.422;2023-03-01T10:02:59;9.00;80.90
17053;DHT22;8643;48.824;11.422;2023-03-01T10:05:46;9.10;77.90
17053;DHT22;8643;48.824;11.422;2023-03-01T10:08:41;8.30;80.90
17053;DHT22;8643;48.824;11.422;2023-03-01T10:11:20;8.50;84.60
17053;DHT22;8643;48.824;11.422;2023-03-01T10:14:04;8.50;84.40
17053;DHT22;8643;48.824;11.422;2023-03-01T10:16:41;8.90;84.70
17053;DHT22;8643;48.824;11.422;2023-03-01T10:19:22;8.80;80.10
17053;DHT22;8643;48.824;11.422;2023-03-01T10:21:58;8.90;81.10
17053;DHT22;8643;48.824;11.422;2023-03-01T10:24:34;8.90;77.50
17053;DHT22;8643;48.824;11.422;2023-03-01T10:27:07;9.20;80.70
17053;DHT22;8643;48.824;11.422;2023-03-01T10:29:45;9.70;74.30
17053;DHT22;8643;48.824;11.422;2023-03-01T10:32:18;9.90;79.50
17053;DHT22;8643;48.824;11.422;2023-03-01T10:34:50;10.20;83.80
17053;DHT22;8643;48.824;11.422;2023-03-01T10:37:21;10.50;77.60
17053;DHT22;8643;48.824;11.422;2023-03-01T10:40:01;10.40;75.40
17053;DHT22;8643;48.824;11.422;2023-03-01T10:42:38;10.30;74.20
17053;DHT22;8643;48.824;11.422;2023-03-01T10:45:30;10.00;76.80
17053;DHT22;8643;48.824;11.422;2023-03-01T10:48:12;10.20;71.50
17053;DHT22;8643;48.824;11.422;2023-03-01T10:50:44;10.40;72.10
17053;DHT22;8643;48.824;11.422;2023-03-01T10:53:24;10.30;74.50
17053;DHT22;8643;48.824;11.422;2023-03-01T10:56:01;9.90;74.80
17053;DHT22;8643;48.824;11.422;2023-03-01T10:58:32;10.00;77.10
17053;DHT22;8643;48.824;11.422;2023-03-01T11:01:04;10.40;73.70
17053;DHT22;8643;48.824;11.422;2023-03-01T11:03:34;10.60;74.20
17053;DHT22;8643;48.824;11.422;2023-03-01T11:06:19;10.50;73.50
17053;DHT22;8643;48.824;11.422;2023-03-01T11:08:50;10.30;75.30
17053;DHT22;8643;48.824;11.422;2023-03-01T11:11:31;10.40;71.70
17053;DHT22;8643;48.824;11.422;2023-03-01T11:14:05;10.80;75.30
17053;DHT22;8643;48.824;11.422;2023-03-01T11:16:59;10.90;73.70
17053;DHT22;8643;48.824;11.422;2023-03-01T11:19:29;11.20;68.90
17053;DHT22;8643;48.824;11.422;2023-03-01T11:22:02;11.40;68.70
17053;DHT22;8643;48.824;11.422;2023-03-01T11:24:39;11.40;71.70
17053;DHT22;8643;48.824;11.422;2023-03-01T11:27:17;11.40;67.80
17053;DHT22;8643;48.824;11.422;2023-03-01T11:29:52;11.50;72.50
17053;DHT22;8643;48.824;11.422;2023-03-01T11:32:27;11.30;66.70
17053;DHT22;8643;48.824;11.422;2023-03-01T11:35:05;11.10;71.10
17053;DHT22;8643;48.824;11.422;2023-03-01T11:37:49;11.40;69.50
17053;DHT22;8643;48.824;11.422;2023-03-01T11:40:32;11.80;68.40
17053;DHT22;8643;48.824;11.422;2023-03-01T11:43:12;12.10;65.30
17053;DHT22;8643;48.824;11.422;2023-03-01T11:52:33;11.60;68.10
17053;DHT22;8643;48.824;11.422;2023-03-01T11:55:26;11.50;69.80
17053;DHT22;8643;48.824;11.422;2023-03-01T11:58:27;11.80;67.90
17053;DHT22;8643;48.824;11.422;2023-03-01T12:01:15;11.90;66.90
17053;DHT22;8643;48.824;11.422;2023-03-01T12:04:32;11.80;72.20
17053;DHT22;8643;48.824;11.422;2023-03-01T12:07:24;11.90;70.00
17053;DHT22;8643;48.824;11.422;2023-03-01T12:10:19;12.10;68.30
17053;DHT22;8643;48.824;11.422;2023-03-01T12:16:11;12.40;67.70
17053;DHT22;8643;48.824;11.422;2023-03-01T12:19:25;12.80;65.10
17053;DHT22;8643;48.824;11.422;2023-03-01T12:22:21;12.80;65.60
17053;DHT22;8643;48.824;11.422;2023-03-01T12:25:19;12.40;65.70
17053;DHT22;8643;48.824;11.422;2023-03-01T12:28:19;12.50;67.80
17053;DHT22;8643;48.824;11.422;2023-03-01T12:34:15;12.70;68.50
17053;DHT22;8643;48.824;11.422;2023-03-01T12:37:14;11.80;67.90
17053;DHT22;8643;48.824;11.422;2023-03-01T12:40:01;13.10;69.30
17053;DHT22;8643;48.824;11.422;2023-03-01T12:42:50;12.70;67.30
17053;DHT22;8643;48.824;11.422;2023-03-01T12:45:50;12.80;68.00
17053;DHT22;8643;48.824;11.422;2023-03-01T12:48:39;12.30;68.20
17053;DHT22;8643;48.824;11.422;2023-03-01T12:51:17;13.30;66.70
17053;DHT22;8643;48.824;11.422;2023-03-01T12:53:50;14.00;68.90
17053;DHT22;8643;48.824;11.422;2023-03-01T12:56:23;13.50;68.00
17053;DHT22;8643;48.824;11.422;2023-03-01T12:59:02;13.50;68.10
17053;DHT22;8643;48.824;11.422;2023-03-01T13:01:45;12.80;68.30
17053;DHT22;8643;48.824;11.422;2023-03-01T13:04:33;13.00;64.10
17053;DHT22;8643;48.824;11.422;2023-03-01T13:07:23;12.90;68.60
17053;DHT22;8643;48.824;11.422;2023-03-01T13:10:11;12.80;66.30
17053;DHT22;8643;48.824;11.422;2023-03-01T13:13:08;12.60;69.70
17053;DHT22;8643;48.824;11.422;2023-03-01T13:15:41;12.90;65.70
17053;DHT22;8643;48.824;11.422;2023-03-01T13:18:35;13.20;65.80
17053;DHT22;8643;48.824;11.422;2023-03-01T13:21:04;13.80;62.80
17053;DHT22;8643;48.824;11.422;2023-03-01T13:23:36;14.00;61.40
17053;DHT22;8643;48.824;11.422;2023-03-01T13:26:12;13.60;63.00
17053;DHT22;8643;48.824;11.422;2023-03-01T13:29:00;13.70;63.80
17053;DHT22;8643;48.824;11.422;2023-03-01T13:31:58;13.30;67.90
17053;DHT22;8643;48.824;11.422;2023-03-01T13:34:54;12.90;67.90
17053;DHT22;8643;48.824;11.422;2023-03-01T13:37:26;12.80;68.30
17053;DHT22;8643;48.824;11.422;2023-03-01T13:39:59;12.80;69.70
17053;DHT22;8643;48.824;11.422;2023-03-01T13:42:42;12.60;69.70
17053;DHT22;8643;48.824;11.422;2023-03-01T13:45:36;12.60;67.20
17053;DHT22;8643;48.824;11.422;2023-03-01T13:48:16;12.60;70.10
17053;DHT22;8643;48.824;11.422;2023-03-01T13:50:55;12.80;67.60
17053;DHT22;8643;48.824;11.422;2023-03-01T13:53:30;12.50;67.30
17053;DHT22;8643;48.824;11.422;2023-03-01T13:56:08;12.50;67.90
17053;DHT22;8643;48.824;11.422;2023-03-01T13:58:47;12.50;66.40
17053;DHT22;8643;48.824;11.422;2023-03-01T14:01:25;12.60;66.30
17053;DHT22;8643;48.824;11.422;2023-03-01T14:03:57;11.90;67.20
17053;DHT22;8643;48.824;11.422;2023-03-01T14:06:29;12.30;66.70
17053;DHT22;8643;48.824;11.422;2023-03-01T14:09:08;12.30;67.90
17053;DHT22;8643;48.824;11.422;2023-03-01T14:12:16;12.30;67.90
17053;DHT22;8643;48.824;11.422;2023-03-01T14:14:59;12.40;70.10
17053;DHT22;8643;48.824;11.422;2023-03-01T14:20:39;12.60;70.30
17053;DHT22;8643;48.824;11.422;2023-03-01T14:23:13;12.80;69.50
17053;DHT22;8643;48.824;11.422;2023-03-01T14:25:47;12.70;66.50
17053;DHT22;8643;48.824;11.422;2023-03-01T14:28:19;12.50;70.20
17053;DHT22;8643;48.824;11.422;2023-03-01T14:30:51;12.40;66.70
17053;DHT22;8643;48.824;11.422;2023-03-01T14:33:25;12.60;67.50
17053;DHT22;8643;48.824;11.422;2023-03-01T14:35:58;12.30;65.50
17053;DHT22;8643;48.824;11.422;2023-03-01T14:38:35;12.10;66.80
17053;DHT22;8643;48.824;11.422;2023-03-01T14:41:07;12.40;68.30
17053;DHT22;8643;48.824;11.422;2023-03-01T14:43:41;11.30;70.90
17053;DHT22;8643;48.824;11.422;2023-03-01T14:46:19;11.40;71.30
17053;DHT22;8643;48.824;11.422;2023-03-01T14:48:50;11.50;71.20
17053;DHT22;8643;48.824;11.422;2023-03-01T14:51:20;12.10;71.50
17053;DHT22;8643;48.824;11.422;2023-03-01T14:53:51;11.40;71.10
17053;DHT22;8643;48.824;11.422;2023-03-01T14:56:20;11.40;71.10
17053;DHT22;8643;48.824;11.422;2023-03-01T14:58:51;11.50;68.60
17053;DHT22;8643;48.824;11.422;2023-03-01T15:01:21;11.80;69.30
17053;DHT22;8643;48.824;11.422;2023-03-01T15:03:50;11.70;70.00
17053;DHT22;8643;48.824;11.422;2023-03-01T15:06:20;11.70;70.40
17053;DHT22;8643;48.824;11.422;2023-03-01T15:08:57;11.70;70.60
17053;DHT22;8643;48.824;11.422;2023-03-01T15:11:29;11.90;68.70
17053;DHT22;8643;48.824;11.422;2023-03-01T15:13:59;11.90;68.10
17053;DHT22;8643;48.824;11.422;2023-03-01T15:16:29;11.70;69.20
17053;DHT22;8643;48.824;11.422;2023-03-01T15:19:02;11.50;71.10
17053;DHT22;8643;48.824;11.422;2023-03-01T15:21:33;11.20;72.70
17053;DHT22;8643;48.824;11.422;2023-03-01T15:24:08;11.30;70.80
17053;DHT22;8643;48.824;11.422;2023-03-01T15:26:51;11.70;69.10
17053;DHT22;8643;48.824;11.422;2023-03-01T15:29:26;11.80;68.50
17053;DHT22;8643;48.824;11.422;2023-03-01T15:31:59;11.70;67.20
17053;DHT22;8643;48.824;11.422;2023-03-01T15:34:32;11.50;67.80
17053;DHT22;8643;48.824;11.422;2023-03-01T15:37:05;11.10;68.90
17053;DHT22;8643;48.824;11.422;2023-03-01T15:39:57;10.70;70.00
17053;DHT22;8643;48.824;11.422;2023-03-01T15:42:37;10.10;70.50
17053;DHT22;8643;48.824;11.422;2023-03-01T15:45:10;10.10;71.10
17053;DHT22;8643;48.824;11.422;2023-03-01T15:47:41;9.80;72.60
17053;DHT22;8643;48.824;11.422;2023-03-01T15:50:22;9.50;73.20
17053;DHT22;8643;48.824;11.422;2023-03-01T15:52:53;9.20;74.10
17053;DHT22;8643;48.824;11.422;2023-03-01T15:55:25;9.00;74.90
17053;DHT22;8643;48.824;11.422;2023-03-01T15:58:02;6.10;73.90
17053;DHT22;8643;48.824;11.422;2023-03-01T16:00:33;8.40;77.80
17053;DHT22;8643;48.824;11.422;2023-03-01T16:03:02;8.30;77.00
17053;DHT22;8643;48.824;11.422;2023-03-01T16:05:32;8.30;78.10
17053;DHT22;8643;48.824;11.422;2023-03-01T16:08:06;7.80;77.90
17053;DHT22;8643;48.824;11.422;2023-03-01T16:10:35;8.10;78.30
17053;DHT22;8643;48.824;11.422;2023-03-01T16:13:05;8.00;79.30
17053;DHT22;8643;48.824;11.422;2023-03-01T16:20:33;7.50;80.70
17053;DHT22;8643;48.824;11.422;2023-03-01T16:23:07;8.20;82.20
17053;DHT22;8643;48.824;11.422;2023-03-01T16:25:39;7.10;82.70
17053;DHT22;8643;48.824;11.422;2023-03-01T16:28:07;7.00;83.20
17053;DHT22;8643;48.824;11.422;2023-03-01T16:30:38;6.70;85.10
17053;DHT22;8643;48.824;11.422;2023-03-01T16:33:07;6.40;86.00
17053;DHT22;8643;48.824;11.422;2023-03-01T16:35:56;6.30;86.80
17053;DHT22;8643;48.824;11.422;2023-03-01T16:38:27;6.20;87.80
17053;DHT22;8643;48.824;11.422;2023-03-01T16:40:57;6.10;87.90
17053;DHT22;8643;48.824;11.422;2023-03-01T16:43:25;5.90;88.70
17053;DHT22;8643;48.824;11.422;2023-03-01T16:45:54;5.90;89.90
17053;DHT22;8643;48.824;11.422;2023-03-01T16:48:23;5.70;90.50
17053;DHT22;8643;48.824;11.422;2023-03-01T16:50:59;5.60;90.50
17053;DHT22;8643;48.824;11.422;2023-03-01T16:53:28;5.50;91.20
17053;DHT22;8643;48.824;11.422;2023-03-01T16:55:58;5.50;91.50
17053;DHT22;8643;48.824;11.422;2023-03-01T16:58:27;5.30;91.90
17053;DHT22;8643;48.824;11.422;2023-03-01T17:03:31;5.20;92.70
17053;DHT22;8643;48.824;11.422;2023-03-01T17:06:02;5.10;92.90
17053;DHT22;8643;48.824;11.422;2023-03-01T17:11:10;5.00;94.20
17053;DHT22;8643;48.824;11.422;2023-03-01T17:13:40;4.90;94.70
17053;DHT22;8643;48.824;11.422;2023-03-01T17:16:15;4.80;95.00
17053;DHT22;8643;48.824;11.422;2023-03-01T17:21:15;4.80;95.80
17053;DHT22;8643;48.824;11.422;2023-03-01T17:23:44;4.70;96.20
17053;DHT22;8643;48.824;11.422;2023-03-01T17:26:17;4.60;96.30
17053;DHT22;8643;48.824;11.422;2023-03-01T17:28:45;4.70;96.90
17053;DHT22;8643;48.824;11.422;2023-03-01T17:31:18;4.60;97.40
17053;DHT22;8643;48.824;11.422;2023-03-01T17:33:47;4.50;97.80
17053;DHT22;8643;48.824;11.422;2023-03-01T17:36:16;4.50;98.30
17053;DHT22;8643;48.824;11.422;2023-03-01T17:38:44;4.50;98.60
17053;DHT22;8643;48.824;11.422;2023-03-01T17:43:45;3.50;99.40
17053;DHT22;8643;48.824;11.422;2023-03-01T17:48:43;3.80;99.90
17053;DHT22;8643;48.824;11.422;2023-03-01T17:51:11;5.30;99.90
17053;DHT22;8643;48.824;11.422;2023-03-01T17:53:39;4.20;99.90
17053;DHT22;8643;48.824;11.422;2023-03-01T17:56:08;4.10;99.90
17053;DHT22;8643;48.824;11.422;2023-03-01T17:58:37;4.00;99.90